createdAt,value
2022-11-29T00:00:02.976Z,65.06
2022-11-29T00:02:40.023Z,66.77
2022-11-29T00:05:07.699Z,69.29
2022-11-29T00:20:38.852Z,67.00
2022-11-29T00:23:06.076Z,66.86
2022-11-29T00:25:33.292Z,67.10
2022-11-29T00:28:00.828Z,66.58
2022-11-29T00:30:28.117Z,67.37
2022-11-29T00:32:55.387Z,68.77
2022-11-29T00:35:22.862Z,67.52
2022-11-29T00:37:50.053Z,69.74
2022-11-29T00:40:17.294Z,67.81
2022-11-29T00:42:44.781Z,67.12
2022-11-29T00:45:12.224Z,65.63
2022-11-29T00:47:39.516Z,65.71
2022-11-29T00:50:07.402Z,66.68
2022-11-29T00:52:34.642Z,70.17
2022-11-29T00:55:01.871Z,67.71
2022-11-29T00:57:29.359Z,68.64
2022-11-29T00:59:56.602Z,66.85
2022-11-29T01:02:23.967Z,70.10
2022-11-29T01:04:51.487Z,70.36
2022-11-29T01:07:18.878Z,69.04
2022-11-29T01:09:46.164Z,68.02
2022-11-29T01:12:14.071Z,66.30
2022-11-29T01:14:42.136Z,66.34
2022-11-29T01:17:09.611Z,66.77
2022-11-29T01:19:37.760Z,64.75
2022-11-29T01:22:05.051Z,67.80
2022-11-29T01:24:32.268Z,66.87
2022-11-29T01:26:59.817Z,65.31
2022-11-29T01:29:27.050Z,64.70
2022-11-29T01:31:54.250Z,65.14
2022-11-29T01:34:21.776Z,65.72
2022-11-29T01:36:48.992Z,64.50
2022-11-29T01:39:16.184Z,65.63
2022-11-29T01:41:43.625Z,64.88
2022-11-29T01:44:13.849Z,67.36
2022-11-29T01:46:42.055Z,66.61
2022-11-29T01:49:23.026Z,67.32
2022-11-29T01:51:51.006Z,66.28
2022-11-29T01:54:18.556Z,66.49
2022-11-29T01:56:45.992Z,65.67
2022-11-29T01:59:14.643Z,67.41
2022-11-29T02:01:42.429Z,66.97
2022-11-29T02:04:09.995Z,65.57
2022-11-29T02:06:37.954Z,66.19
2022-11-29T02:09:05.336Z,66.26
2022-11-29T02:11:41.631Z,66.38
2022-11-29T02:14:09.142Z,64.44
2022-11-29T02:16:45.960Z,66.31
2022-11-29T02:19:25.585Z,64.40
2022-11-29T02:21:56.975Z,68.09
2022-11-29T02:24:43.883Z,67.21
2022-11-29T02:27:23.132Z,67.39
2022-11-29T02:29:53.695Z,66.96
2022-11-29T02:32:27.049Z,65.76
2022-11-29T02:34:57.484Z,66.19
2022-11-29T02:37:37.109Z,68.42
2022-11-29T02:40:07.829Z,68.18
2022-11-29T02:42:55.804Z,67.55
2022-11-29T02:45:42.462Z,69.20
2022-11-29T02:48:23.395Z,70.38
2022-11-29T02:50:56.916Z,67.29
2022-11-29T02:53:35.725Z,67.17
2022-11-29T02:56:12.501Z,70.84
2022-11-29T02:58:58.585Z,69.86
2022-11-29T03:01:28.773Z,66.81
2022-11-29T03:04:08.320Z,68.30
2022-11-29T03:06:54.804Z,67.18
2022-11-29T03:09:26.170Z,67.52
2022-11-29T03:12:05.833Z,67.48
2022-11-29T03:14:35.993Z,66.66
2022-11-29T03:17:42.194Z,67.37
2022-11-29T03:20:21.466Z,65.54
2022-11-29T03:22:51.975Z,65.59
2022-11-29T03:25:21.663Z,66.05
2022-11-29T03:28:01.331Z,65.13
2022-11-29T03:30:28.565Z,62.39
2022-11-29T03:33:08.184Z,61.86
2022-11-29T03:35:54.150Z,60.42
2022-11-29T03:38:24.829Z,62.52
2022-11-29T03:40:56.459Z,63.94
2022-11-29T03:43:26.987Z,63.34
2022-11-29T03:46:09.089Z,64.66
2022-11-29T03:48:37.113Z,64.55
2022-11-29T03:51:10.443Z,63.20
2022-11-29T03:53:43.962Z,63.17
2022-11-29T03:56:40.375Z,63.28
2022-11-29T03:59:26.515Z,66.24
2022-11-29T04:02:16.221Z,65.45
2022-11-29T04:04:49.747Z,65.60
2022-11-29T04:07:25.860Z,63.41
2022-11-29T04:09:56.521Z,64.80
2022-11-29T04:12:32.757Z,64.45
2022-11-29T04:15:18.323Z,65.99
2022-11-29T04:17:51.246Z,65.93
2022-11-29T04:20:40.367Z,65.42
2022-11-29T04:23:12.107Z,65.10
2022-11-29T04:25:58.135Z,66.36
2022-11-29T04:28:43.994Z,67.43
2022-11-29T04:31:30.546Z,64.06
2022-11-29T04:34:00.599Z,64.31
2022-11-29T04:36:38.765Z,69.79
2022-11-29T04:39:24.909Z,64.17
2022-11-29T04:41:55.239Z,63.78
2022-11-29T04:44:37.654Z,64.50
2022-11-29T04:47:10.328Z,64.12
2022-11-29T04:49:43.729Z,64.65
2022-11-29T04:52:13.867Z,68.46
2022-11-29T04:55:00.051Z,66.53
2022-11-29T04:57:31.224Z,65.56
2022-11-29T05:00:07.697Z,66.90
2022-11-29T05:02:47.482Z,66.73
2022-11-29T05:05:20.604Z,64.83
2022-11-29T05:07:51.125Z,63.65
2022-11-29T05:10:22.438Z,63.19
2022-11-29T05:12:59.256Z,66.17
2022-11-29T05:15:32.649Z,64.29
2022-11-29T05:18:06.375Z,63.34
2022-11-29T05:20:33.496Z,65.76
2022-11-29T05:23:20.118Z,66.44
2022-11-29T05:26:02.708Z,67.85
2022-11-29T05:28:35.552Z,65.61
2022-11-29T05:31:13.642Z,68.07
2022-11-29T05:34:00.179Z,67.97
2022-11-29T05:36:27.354Z,64.63
2022-11-29T05:38:54.829Z,64.18
2022-11-29T05:41:22.097Z,65.04
2022-11-29T05:44:09.456Z,66.84
2022-11-29T05:46:39.989Z,65.71
2022-11-29T05:49:16.360Z,66.53
2022-11-29T05:51:52.698Z,64.87
2022-11-29T05:54:19.903Z,67.04
2022-11-29T05:57:08.626Z,65.34
2022-11-29T05:59:37.159Z,68.39
2022-11-29T06:02:13.942Z,68.90
2022-11-29T06:05:03.648Z,68.93
2022-11-29T06:07:41.852Z,67.69
2022-11-29T06:10:11.608Z,67.97
2022-11-29T06:12:38.987Z,66.77
2022-11-29T06:15:13.978Z,66.58
2022-11-29T06:17:44.573Z,67.20
2022-11-29T06:20:20.999Z,64.11
2022-11-29T06:23:07.829Z,67.01
2022-11-29T06:25:42.291Z,65.62
2022-11-29T06:28:14.701Z,64.39
2022-11-29T06:30:48.056Z,64.87
2022-11-29T06:33:18.954Z,66.10
2022-11-29T06:35:46.475Z,66.84
2022-11-29T06:38:16.727Z,66.24
2022-11-29T06:40:44.342Z,65.83
2022-11-29T06:43:11.741Z,63.67
2022-11-29T06:45:39.781Z,62.20
2022-11-29T06:48:07.293Z,64.07
2022-11-29T06:50:43.558Z,66.13
2022-11-29T06:53:26.833Z,67.48
2022-11-29T06:55:54.052Z,65.56
2022-11-29T06:58:21.546Z,65.84
2022-11-29T07:00:51.725Z,66.49
2022-11-29T07:03:37.921Z,67.73
2022-11-29T07:06:11.045Z,67.39
2022-11-29T07:08:38.296Z,64.83
2022-11-29T07:11:05.874Z,66.13
2022-11-29T07:13:33.223Z,64.23
2022-11-29T07:16:16.789Z,66.66
2022-11-29T07:19:03.106Z,66.11
2022-11-29T07:21:42.799Z,65.31
2022-11-29T07:24:13.097Z,65.70
2022-11-29T07:27:06.528Z,65.56
2022-11-29T07:29:52.631Z,65.59
2022-11-29T07:32:24.265Z,63.68
2022-11-29T07:34:51.729Z,64.69
2022-11-29T07:37:21.221Z,64.13
2022-11-29T07:39:57.547Z,62.41
2022-11-29T07:42:40.218Z,63.54
2022-11-29T07:45:07.406Z,66.69
2022-11-29T07:47:36.152Z,67.15
2022-11-29T07:50:03.870Z,64.29
2022-11-29T07:52:31.146Z,67.03
2022-11-29T07:54:58.645Z,66.93
2022-11-29T07:57:25.829Z,66.96
2022-11-29T07:59:53.076Z,67.41
2022-11-29T08:02:27.534Z,65.23
2022-11-29T08:04:55.047Z,64.76
2022-11-29T08:07:22.325Z,64.36
2022-11-29T08:09:49.653Z,63.28
2022-11-29T08:12:17.135Z,65.44
2022-11-29T08:14:44.572Z,68.43
2022-11-29T08:17:12.078Z,70.96
2022-11-29T08:19:39.621Z,68.65
2022-11-29T08:22:06.855Z,67.66
2022-11-29T08:24:34.064Z,67.36
2022-11-29T08:27:01.611Z,65.93
2022-11-29T08:29:28.853Z,65.46
2022-11-29T08:31:56.172Z,64.18
2022-11-29T08:34:23.951Z,66.42
2022-11-29T08:36:51.260Z,65.74
2022-11-29T08:39:18.495Z,65.56
2022-11-29T08:41:46.034Z,64.93
2022-11-29T08:44:13.330Z,62.99
2022-11-29T08:46:59.063Z,64.50
2022-11-29T08:49:26.610Z,65.11
2022-11-29T08:52:13.811Z,65.52
2022-11-29T08:54:41.293Z,64.24
2022-11-29T08:57:38.566Z,65.70
2022-11-29T08:59:56.054Z,67.58
2022-11-29T09:02:23.387Z,66.09
2022-11-29T09:04:50.844Z,67.31
2022-11-29T09:07:18.415Z,64.64
2022-11-29T09:09:45.670Z,64.71
2022-11-29T09:12:12.857Z,64.67
2022-11-29T09:14:40.305Z,64.66
2022-11-29T09:17:07.548Z,64.52
2022-11-29T09:19:34.718Z,65.54
2022-11-29T09:22:02.940Z,66.07
2022-11-29T09:24:30.140Z,64.46
2022-11-29T09:26:57.944Z,63.72
2022-11-29T09:29:25.408Z,63.41
2022-11-29T09:31:52.682Z,63.50
2022-11-29T09:34:19.911Z,60.78
2022-11-29T09:36:48.217Z,63.46
2022-11-29T09:39:15.447Z,61.36
2022-11-29T09:41:46.980Z,60.47
2022-11-29T09:44:16.056Z,60.15
2022-11-29T09:46:43.251Z,61.13
2022-11-29T09:49:22.441Z,59.09
2022-11-29T09:51:50.017Z,60.38
2022-11-29T09:54:23.338Z,55.87
2022-11-29T09:56:51.859Z,55.06
2022-11-29T09:59:19.035Z,56.21
2022-11-29T10:01:46.915Z,54.34
2022-11-29T10:04:18.793Z,53.67
2022-11-29T10:06:48.797Z,55.50
2022-11-29T10:09:22.381Z,54.01
2022-11-29T10:12:08.564Z,54.20
2022-11-29T10:14:41.222Z,53.80
2022-11-29T10:17:14.150Z,52.85
2022-11-29T10:19:42.754Z,52.87
2022-11-29T10:22:09.941Z,53.06
2022-11-29T10:24:37.188Z,53.91
2022-11-29T10:27:23.927Z,55.49
2022-11-29T10:29:51.334Z,55.24
2022-11-29T10:32:21.213Z,57.08
2022-11-29T10:34:48.972Z,56.24
2022-11-29T10:37:17.486Z,56.78
2022-11-29T10:39:48.905Z,59.88
2022-11-29T10:42:38.657Z,58.51
2022-11-29T10:45:27.347Z,59.11
2022-11-29T10:47:56.117Z,59.44
2022-11-29T10:50:25.028Z,61.30
2022-11-29T10:52:58.673Z,62.14
2022-11-29T10:55:27.693Z,62.14
2022-11-29T10:58:07.561Z,61.43
2022-11-29T11:01:07.139Z,60.95
2022-11-29T11:03:47.933Z,61.16
2022-11-29T11:06:19.744Z,61.81
2022-11-29T11:08:52.314Z,61.42
2022-11-29T11:11:23.926Z,62.25
2022-11-29T11:14:04.822Z,63.54
2022-11-29T11:16:37.035Z,64.79
2022-11-29T11:19:25.668Z,61.92
2022-11-29T11:21:53.818Z,62.07
2022-11-29T11:24:23.299Z,60.98
2022-11-29T11:26:50.549Z,61.69
2022-11-29T11:29:31.763Z,59.67
2022-11-29T11:31:59.558Z,61.00
2022-11-29T11:34:34.175Z,63.06
2022-11-29T11:37:20.412Z,62.54
2022-11-29T11:39:52.505Z,62.62
2022-11-29T11:42:39.254Z,61.22
2022-11-29T11:45:27.403Z,61.91
2022-11-29T11:47:55.619Z,59.71
2022-11-29T11:50:34.297Z,59.41
2022-11-29T11:53:21.804Z,58.73
2022-11-29T11:55:59.619Z,60.34
2022-11-29T11:58:47.098Z,63.09
2022-11-29T12:01:17.595Z,62.20
2022-11-29T12:03:49.497Z,61.02
2022-11-29T12:06:19.441Z,62.56
2022-11-29T12:08:48.457Z,60.29
2022-11-29T12:11:16.426Z,59.00
2022-11-29T12:13:54.208Z,59.86
2022-11-29T12:16:27.532Z,57.64
2022-11-29T12:19:15.052Z,57.23
2022-11-29T12:21:43.442Z,58.86
2022-11-29T12:24:10.604Z,59.16
2022-11-29T12:26:58.536Z,57.58
2022-11-29T12:29:28.015Z,57.34
2022-11-29T12:32:01.672Z,58.80
2022-11-29T12:34:33.878Z,58.62
2022-11-29T12:37:10.667Z,58.71
2022-11-29T12:39:44.135Z,58.58
2022-11-29T12:42:23.671Z,58.32
2022-11-29T12:44:51.183Z,57.68
2022-11-29T12:47:35.832Z,55.74
2022-11-29T12:50:23.064Z,54.59
2022-11-29T12:53:02.989Z,56.47
2022-11-29T12:55:43.765Z,55.55
2022-11-29T12:58:13.635Z,56.34
2022-11-29T13:00:51.204Z,57.90
2022-11-29T13:03:26.611Z,56.50
2022-11-29T13:05:56.225Z,58.50
2022-11-29T13:08:38.422Z,58.36
2022-11-29T13:11:09.080Z,58.02
2022-11-29T13:13:40.352Z,56.06
2022-11-29T13:16:31.051Z,56.64
2022-11-29T13:19:17.325Z,59.09
2022-11-29T13:22:07.853Z,55.98
2022-11-29T13:24:42.547Z,56.48
2022-11-29T13:27:14.146Z,55.79
2022-11-29T13:29:41.409Z,56.81
2022-11-29T13:32:14.401Z,54.65
2022-11-29T13:34:42.954Z,54.19
2022-11-29T13:37:28.844Z,53.81
2022-11-29T13:40:01.676Z,56.21
2022-11-29T13:42:37.681Z,56.93
2022-11-29T13:45:20.803Z,55.48
2022-11-29T13:47:51.911Z,57.32
2022-11-29T13:50:36.631Z,58.76
2022-11-29T13:53:04.962Z,58.30
2022-11-29T13:55:34.189Z,56.79
2022-11-29T13:58:16.836Z,56.47
2022-11-29T14:00:45.554Z,57.36
2022-11-29T14:03:28.458Z,55.94
2022-11-29T14:06:04.258Z,58.01
2022-11-29T14:08:54.618Z,60.15
2022-11-29T14:11:26.639Z,58.95
2022-11-29T14:13:55.445Z,60.08
2022-11-29T14:16:28.300Z,62.14
2022-11-29T14:19:14.586Z,61.39
2022-11-29T14:22:05.479Z,62.80
2022-11-29T14:24:33.150Z,62.73
2022-11-29T14:27:06.742Z,60.67
2022-11-29T14:29:49.830Z,60.40
2022-11-29T14:32:21.296Z,59.34
2022-11-29T14:34:51.343Z,59.76
2022-11-29T14:37:24.087Z,58.15
2022-11-29T14:39:52.037Z,58.49
2022-11-29T14:42:20.533Z,58.94
2022-11-29T14:44:49.200Z,56.68
2022-11-29T14:47:24.273Z,56.93
2022-11-29T14:49:51.931Z,56.56
2022-11-29T14:52:29.579Z,56.15
2022-11-29T14:55:07.679Z,59.01
2022-11-29T14:57:47.349Z,58.14
2022-11-29T15:00:15.512Z,61.25
2022-11-29T15:02:46.133Z,59.89
2022-11-29T15:05:20.871Z,59.49
2022-11-29T15:07:53.314Z,60.07
2022-11-29T15:10:25.855Z,59.02
2022-11-29T15:12:53.382Z,58.71
2022-11-29T15:15:23.626Z,58.23
2022-11-29T15:18:00.985Z,57.78
2022-11-29T15:20:43.551Z,59.90
2022-11-29T15:23:15.023Z,57.66
2022-11-29T15:25:46.576Z,59.30
2022-11-29T15:28:18.834Z,58.94
2022-11-29T15:30:46.685Z,58.43
2022-11-29T15:33:21.182Z,58.52
2022-11-29T15:35:50.103Z,56.33
2022-11-29T15:38:18.048Z,56.50
2022-11-29T15:40:52.853Z,56.71
2022-11-29T15:43:22.432Z,56.26
2022-11-29T15:45:50.560Z,56.35
2022-11-29T15:48:18.981Z,57.87
2022-11-29T15:51:01.894Z,57.85
2022-11-29T15:53:29.069Z,56.75
2022-11-29T15:55:56.791Z,55.03
2022-11-29T15:58:24.869Z,56.37
2022-11-29T16:00:52.272Z,55.91
2022-11-29T16:03:29.969Z,55.17
2022-11-29T16:06:02.898Z,54.77
2022-11-29T16:08:32.101Z,53.80
2022-11-29T16:11:00.460Z,54.51
2022-11-29T16:13:35.670Z,56.92
2022-11-29T16:16:06.413Z,57.09
2022-11-29T16:18:33.737Z,55.64
2022-11-29T16:21:01.433Z,54.63
2022-11-29T16:23:39.052Z,55.57
2022-11-29T16:26:12.091Z,57.62
2022-11-29T16:28:43.737Z,56.64
2022-11-29T16:31:18.297Z,55.63
2022-11-29T16:33:47.562Z,54.94
2022-11-29T16:36:17.954Z,55.98
2022-11-29T16:38:46.751Z,59.84
2022-11-29T16:41:21.803Z,56.43
2022-11-29T16:43:53.924Z,54.92
2022-11-29T16:46:21.486Z,55.04
2022-11-29T16:48:49.552Z,53.61
2022-11-29T16:51:37.758Z,53.22
2022-11-29T16:54:22.813Z,54.39
2022-11-29T16:56:50.659Z,52.67
2022-11-29T16:59:26.111Z,52.06
2022-11-29T17:01:56.133Z,52.73
2022-11-29T17:04:25.055Z,52.20
2022-11-29T17:06:55.879Z,54.26
2022-11-29T17:09:41.483Z,56.95
2022-11-29T17:12:12.484Z,55.99
2022-11-29T17:14:40.047Z,57.56
2022-11-29T17:17:07.275Z,57.42
2022-11-29T17:19:34.595Z,57.39
2022-11-29T17:22:02.565Z,57.67
2022-11-29T17:24:29.788Z,58.01
2022-11-29T17:26:57.064Z,59.51
2022-11-29T17:29:24.585Z,60.51
2022-11-29T17:31:53.318Z,60.25
2022-11-29T17:34:20.852Z,60.01
2022-11-29T17:36:48.443Z,59.22
2022-11-29T17:39:19.926Z,58.49
2022-11-29T17:41:47.654Z,59.66
2022-11-29T17:44:14.965Z,58.54
2022-11-29T17:46:42.244Z,56.83
2022-11-29T17:49:10.286Z,57.00
2022-11-29T17:51:54.246Z,56.08
2022-11-29T17:54:22.490Z,56.42
2022-11-29T17:56:50.082Z,55.86
2022-11-29T17:59:17.495Z,55.82
2022-11-29T18:01:47.314Z,56.84
2022-11-29T18:04:15.266Z,58.32
2022-11-29T18:06:42.686Z,56.24
2022-11-29T18:09:10.378Z,55.29
2022-11-29T18:11:47.086Z,55.08
2022-11-29T18:14:19.994Z,54.93
2022-11-29T18:16:47.646Z,57.05
2022-11-29T18:19:16.625Z,54.71
2022-11-29T18:21:44.024Z,53.92
2022-11-29T18:24:11.722Z,54.99
2022-11-29T18:26:39.755Z,53.86
2022-11-29T18:29:07.146Z,53.41
2022-11-29T18:31:35.682Z,53.72
2022-11-29T18:34:07.180Z,54.96
2022-11-29T18:36:35.957Z,54.60
2022-11-29T18:39:10.375Z,53.28
2022-11-29T18:41:38.063Z,53.00
2022-11-29T18:44:06.159Z,53.37
2022-11-29T18:46:35.671Z,51.99
2022-11-29T18:49:04.141Z,54.99
2022-11-29T18:51:31.958Z,55.15
2022-11-29T18:53:59.378Z,53.22
2022-11-29T18:56:28.090Z,52.14
2022-11-29T18:58:58.387Z,52.37
2022-11-29T19:01:27.851Z,52.67
2022-11-29T19:03:55.756Z,53.04
2022-11-29T19:06:24.272Z,53.46
2022-11-29T19:08:51.875Z,51.75
2022-11-29T19:11:20.270Z,52.72
2022-11-29T19:13:47.849Z,52.87
2022-11-29T19:16:16.471Z,52.66
2022-11-29T19:18:49.735Z,51.94
2022-11-29T19:21:17.771Z,53.57
2022-11-29T19:23:45.525Z,55.44
2022-11-29T19:26:13.744Z,56.29
2022-11-29T19:28:42.080Z,55.13
2022-11-29T19:31:10.573Z,54.39
2022-11-29T19:33:38.591Z,54.21
2022-11-29T19:36:16.473Z,54.99
2022-11-29T19:38:46.575Z,57.42
2022-11-29T19:41:18.779Z,55.90
2022-11-29T19:43:46.506Z,56.08
2022-11-29T19:46:14.975Z,55.28
2022-11-29T19:48:42.416Z,55.94
2022-11-29T19:51:10.604Z,59.17
2022-11-29T19:53:38.150Z,60.42
2022-11-29T19:56:06.561Z,59.07
2022-11-29T19:58:34.232Z,57.95
2022-11-29T20:01:05.346Z,59.56
2022-11-29T20:03:33.112Z,60.28
2022-11-29T20:06:00.633Z,59.72
2022-11-29T20:08:28.730Z,60.88
2022-11-29T20:10:56.566Z,60.59
2022-11-29T20:13:23.945Z,60.71
2022-11-29T20:15:51.172Z,59.67
2022-11-29T20:18:18.780Z,57.99
2022-11-29T20:20:46.101Z,59.02
2022-11-29T20:23:13.631Z,58.73
2022-11-29T20:25:41.752Z,57.19
2022-11-29T20:28:09.170Z,58.05
2022-11-29T20:30:36.539Z,58.32
2022-11-29T20:33:04.421Z,57.11
2022-11-29T20:35:31.981Z,56.87
2022-11-29T20:38:22.082Z,55.94
2022-11-29T20:41:02.287Z,56.46
2022-11-29T20:43:45.496Z,55.68
2022-11-29T20:46:14.348Z,55.62
2022-11-29T20:48:42.026Z,58.09
2022-11-29T20:51:09.789Z,56.99
2022-11-29T20:53:38.659Z,55.16
2022-11-29T20:56:07.156Z,54.58
2022-11-29T20:58:34.478Z,54.69
2022-11-29T21:01:02.088Z,55.30
2022-11-29T21:03:29.874Z,55.77
2022-11-29T21:05:57.405Z,55.88
2022-11-29T21:08:25.577Z,55.70
2022-11-29T21:10:53.103Z,56.26
2022-11-29T21:13:21.430Z,56.22
2022-11-29T21:15:49.395Z,56.87
2022-11-29T21:18:26.845Z,57.05
2022-11-29T21:20:58.608Z,55.34
2022-11-29T21:23:28.606Z,56.60
2022-11-29T21:25:58.427Z,56.15
2022-11-29T21:28:29.307Z,57.67
2022-11-29T21:30:56.932Z,57.05
2022-11-29T21:33:24.218Z,56.58
2022-11-29T21:35:53.145Z,58.84
2022-11-29T21:38:21.551Z,56.56
2022-11-29T21:40:48.883Z,55.77
2022-11-29T21:43:16.078Z,55.73
2022-11-29T21:45:45.865Z,56.27
2022-11-29T21:48:31.972Z,55.65
2022-11-29T21:50:59.700Z,56.21
2022-11-29T21:53:27.982Z,56.52
2022-11-29T21:55:58.940Z,58.26
2022-11-29T21:58:27.180Z,56.61
2022-11-29T22:00:54.361Z,56.51
2022-11-29T22:03:21.902Z,58.64
2022-11-29T22:05:50.612Z,57.20
2022-11-29T22:08:18.231Z,55.91
2022-11-29T22:10:45.774Z,61.57
2022-11-29T22:13:12.977Z,58.14
2022-11-29T22:15:40.268Z,57.13
2022-11-29T22:18:07.945Z,56.78
2022-11-29T22:20:35.212Z,58.75
2022-11-29T22:23:02.511Z,58.01
2022-11-29T22:25:30.032Z,58.11
2022-11-29T22:27:57.343Z,56.94
2022-11-29T22:30:24.596Z,57.67
2022-11-29T22:32:52.080Z,57.75
2022-11-29T22:35:19.302Z,58.54
2022-11-29T22:37:46.607Z,55.60
2022-11-29T22:40:14.255Z,57.49
2022-11-29T22:42:41.865Z,55.17
2022-11-29T22:45:09.211Z,56.77
2022-11-29T22:47:36.941Z,55.71
2022-11-29T22:50:04.342Z,55.62
2022-11-29T22:52:31.637Z,56.47
2022-11-29T22:55:04.472Z,55.08
2022-11-29T22:57:32.184Z,56.53
2022-11-29T22:59:59.684Z,56.68
2022-11-29T23:02:28.158Z,54.87
2022-11-29T23:04:55.412Z,54.55
2022-11-29T23:07:23.026Z,54.82
2022-11-29T23:09:50.260Z,54.93
2022-11-29T23:12:17.532Z,55.28
2022-11-29T23:14:45.345Z,54.54
2022-11-29T23:17:12.859Z,55.49
2022-11-29T23:19:40.184Z,53.65
2022-11-29T23:22:07.774Z,52.82
2022-11-29T23:24:35.031Z,52.73
2022-11-29T23:27:02.278Z,51.84
2022-11-29T23:29:29.753Z,52.68
2022-11-29T23:31:57.020Z,52.27
2022-11-29T23:34:24.337Z,53.51
2022-11-29T23:36:53.263Z,54.28
2022-11-29T23:39:20.787Z,52.10
2022-11-29T23:41:48.062Z,52.50
2022-11-29T23:44:15.545Z,55.81
2022-11-29T23:46:42.798Z,54.25
2022-11-29T23:49:10.041Z,52.53
2022-11-29T23:51:37.675Z,52.88
2022-11-29T23:54:04.954Z,54.48
2022-11-29T23:56:35.376Z,51.60
2022-11-29T23:59:03.428Z,52.07
